sensor_id;sensor_type;location;lat;lon;timestamp;P1;durP1;ratioP1;P2;durP2;ratioP2
49556;SDS011;35462;45.048;7.666;2023-02-05T00:06:33;96.35;;;54.75;;
49556;SDS011;35462;45.048;7.666;2023-02-05T00:21:49;94.40;;;52.88;;
49556;SDS011;35462;45.048;7.666;2023-02-05T00:37:05;84.38;;;53.30;;
49556;SDS011;35462;45.048;7.666;2023-02-05T00:52:20;89.45;;;52.88;;
49556;SDS011;35462;45.048;7.666;2023-02-05T01:07:36;95.38;;;56.03;;
49556;SDS011;35462;45.048;7.666;2023-02-05T01:22:52;100.05;;;54.05;;
49556;SDS011;35462;45.048;7.666;2023-02-05T01:38:08;99.03;;;55.53;;
49556;SDS011;35462;45.048;7.666;2023-02-05T01:53:24;94.72;;;57.30;;
49556;SDS011;35462;45.048;7.666;2023-02-05T02:08:42;104.05;;;56.35;;
49556;SDS011;35462;45.048;7.666;2023-02-05T02:39:49;97.03;;;56.15;;
49556;SDS011;35462;45.048;7.666;2023-02-05T02:55:13;94.73;;;55.70;;
49556;SDS011;35462;45.048;7.666;2023-02-05T03:10:37;90.15;;;52.75;;
49556;SDS011;35462;45.048;7.666;2023-02-05T03:25:57;90.18;;;55.03;;
49556;SDS011;35462;45.048;7.666;2023-02-05T03:41:30;91.18;;;53.75;;
49556;SDS011;35462;45.048;7.666;2023-02-05T03:57:07;86.65;;;50.85;;
49556;SDS011;35462;45.048;7.666;2023-02-05T04:12:34;85.88;;;48.83;;
49556;SDS011;35462;45.048;7.666;2023-02-05T04:27:50;93.28;;;50.67;;
49556;SDS011;35462;45.048;7.666;2023-02-05T04:43:06;85.00;;;47.58;;
49556;SDS011;35462;45.048;7.666;2023-02-05T04:58:22;80.57;;;44.95;;
49556;SDS011;35462;45.048;7.666;2023-02-05T05:13:38;80.03;;;45.20;;
49556;SDS011;35462;45.048;7.666;2023-02-05T05:28:55;84.32;;;44.33;;
49556;SDS011;35462;45.048;7.666;2023-02-05T05:44:11;58.72;;;34.45;;
49556;SDS011;35462;45.048;7.666;2023-02-05T05:59:27;65.03;;;37.90;;
49556;SDS011;35462;45.048;7.666;2023-02-05T06:14:42;60.03;;;37.80;;
49556;SDS011;35462;45.048;7.666;2023-02-05T06:29:58;63.35;;;35.60;;
49556;SDS011;35462;45.048;7.666;2023-02-05T06:45:14;66.40;;;35.85;;
49556;SDS011;35462;45.048;7.666;2023-02-05T07:00:30;59.85;;;32.83;;
49556;SDS011;35462;45.048;7.666;2023-02-05T07:15:45;61.13;;;34.47;;
49556;SDS011;35462;45.048;7.666;2023-02-05T07:31:03;63.50;;;34.38;;
49556;SDS011;35462;45.048;7.666;2023-02-05T07:46:21;48.63;;;28.60;;
49556;SDS011;35462;45.048;7.666;2023-02-05T08:01:37;58.45;;;31.65;;
49556;SDS011;35462;45.048;7.666;2023-02-05T08:16:52;60.03;;;35.80;;
49556;SDS011;35462;45.048;7.666;2023-02-05T08:32:08;62.00;;;38.22;;
49556;SDS011;35462;45.048;7.666;2023-02-05T08:47:24;66.20;;;38.60;;
49556;SDS011;35462;45.048;7.666;2023-02-05T09:02:41;57.80;;;31.67;;
49556;SDS011;35462;45.048;7.666;2023-02-05T09:17:57;39.70;;;21.77;;
49556;SDS011;35462;45.048;7.666;2023-02-05T09:33:13;57.67;;;27.92;;
49556;SDS011;35462;45.048;7.666;2023-02-05T10:19:10;18.27;;;8.40;;
49556;SDS011;35462;45.048;7.666;2023-02-05T10:50:13;31.13;;;6.13;;
49556;SDS011;35462;45.048;7.666;2023-02-05T11:05:36;10.30;;;4.43;;
49556;SDS011;35462;45.048;7.666;2023-02-05T11:20:55;11.68;;;4.95;;
49556;SDS011;35462;45.048;7.666;2023-02-05T11:36:18;9.83;;;5.33;;
49556;SDS011;35462;45.048;7.666;2023-02-05T11:51:39;10.60;;;5.68;;
49556;SDS011;35462;45.048;7.666;2023-02-05T12:06:59;8.32;;;4.80;;
49556;SDS011;35462;45.048;7.666;2023-02-05T12:38:07;13.73;;;5.13;;
49556;SDS011;35462;45.048;7.666;2023-02-05T13:09:28;10.85;;;4.38;;
49556;SDS011;35462;45.048;7.666;2023-02-05T13:24:59;11.15;;;4.40;;
49556;SDS011;35462;45.048;7.666;2023-02-05T13:40:41;17.58;;;5.00;;
49556;SDS011;35462;45.048;7.666;2023-02-05T14:11:48;7.50;;;3.97;;
49556;SDS011;35462;45.048;7.666;2023-02-05T14:27:19;10.60;;;3.85;;
49556;SDS011;35462;45.048;7.666;2023-02-05T14:42:57;6.25;;;3.50;;
49556;SDS011;35462;45.048;7.666;2023-02-05T15:13:41;6.13;;;2.78;;
49556;SDS011;35462;45.048;7.666;2023-02-05T15:44:57;11.77;;;2.95;;
49556;SDS011;35462;45.048;7.666;2023-02-05T16:00:17;9.20;;;3.47;;
49556;SDS011;35462;45.048;7.666;2023-02-05T16:15:40;9.43;;;5.28;;
49556;SDS011;35462;45.048;7.666;2023-02-05T16:30:59;10.02;;;3.33;;
49556;SDS011;35462;45.048;7.666;2023-02-05T16:46:24;11.30;;;3.60;;
49556;SDS011;35462;45.048;7.666;2023-02-05T17:01:43;11.00;;;4.57;;
49556;SDS011;35462;45.048;7.666;2023-02-05T17:17:00;10.00;;;5.00;;
49556;SDS011;35462;45.048;7.666;2023-02-05T17:32:17;17.48;;;4.82;;
49556;SDS011;35462;45.048;7.666;2023-02-05T17:47:34;9.15;;;5.07;;
49556;SDS011;35462;45.048;7.666;2023-02-05T18:02:50;9.60;;;4.75;;
49556;SDS011;35462;45.048;7.666;2023-02-05T18:18:05;7.57;;;3.53;;
49556;SDS011;35462;45.048;7.666;2023-02-05T18:33:21;8.82;;;4.53;;
49556;SDS011;35462;45.048;7.666;2023-02-05T18:48:37;6.57;;;2.92;;
49556;SDS011;35462;45.048;7.666;2023-02-05T19:03:58;5.07;;;3.20;;
49556;SDS011;35462;45.048;7.666;2023-02-05T19:19:16;8.40;;;4.28;;
49556;SDS011;35462;45.048;7.666;2023-02-05T19:34:33;12.50;;;3.90;;
49556;SDS011;35462;45.048;7.666;2023-02-05T19:49:50;8.18;;;3.70;;
49556;SDS011;35462;45.048;7.666;2023-02-05T20:05:06;7.50;;;5.05;;
49556;SDS011;35462;45.048;7.666;2023-02-05T20:20:22;7.15;;;4.30;;
49556;SDS011;35462;45.048;7.666;2023-02-05T20:35:38;11.45;;;4.80;;
49556;SDS011;35462;45.048;7.666;2023-02-05T20:50:53;6.70;;;4.88;;
49556;SDS011;35462;45.048;7.666;2023-02-05T21:06:09;10.98;;;4.93;;
49556;SDS011;35462;45.048;7.666;2023-02-05T21:21:27;8.57;;;4.53;;
49556;SDS011;35462;45.048;7.666;2023-02-05T21:36:48;7.88;;;4.55;;
49556;SDS011;35462;45.048;7.666;2023-02-05T21:52:04;11.05;;;5.15;;
49556;SDS011;35462;45.048;7.666;2023-02-05T22:07:20;6.97;;;4.70;;
49556;SDS011;35462;45.048;7.666;2023-02-05T22:22:36;11.77;;;4.65;;
49556;SDS011;35462;45.048;7.666;2023-02-05T22:37:51;6.05;;;4.43;;
49556;SDS011;35462;45.048;7.666;2023-02-05T22:53:08;7.90;;;4.72;;
49556;SDS011;35462;45.048;7.666;2023-02-05T23:08:25;7.60;;;4.25;;
49556;SDS011;35462;45.048;7.666;2023-02-05T23:23:43;10.52;;;5.88;;
49556;SDS011;35462;45.048;7.666;2023-02-05T23:38:59;15.50;;;6.80;;
49556;SDS011;35462;45.048;7.666;2023-02-05T23:54:14;9.63;;;5.65;;
